sensor_id;sensor_type;location;lat;lon;timestamp;pressure;altitude;pressure_sealevel;temperature;humidity
7157;BME280;3620;49.862;8.758;2023-02-05T00:00:14;101325.38;;;6.27;95.71
7157;BME280;3620;49.862;8.758;2023-02-05T00:02:42;101325.41;;;6.29;95.45
7157;BME280;3620;49.862;8.758;2023-02-05T00:05:09;101329.78;;;6.33;95.22
7157;BME280;3620;49.862;8.758;2023-02-05T00:07:35;101336.78;;;6.37;95.28
7157;BME280;3620;49.862;8.758;2023-02-05T00:10:02;101335.91;;;6.38;95.26
7157;BME280;3620;49.862;8.758;2023-02-05T00:12:29;101336.81;;;6.46;95.33
7157;BME280;3620;49.862;8.758;2023-02-05T00:14:56;101331.66;;;6.55;94.96
7157;BME280;3620;49.862;8.758;2023-02-05T00:17:22;101337.72;;;6.54;94.53
7157;BME280;3620;49.862;8.758;2023-02-05T00:19:50;101323.78;;;6.56;94.80
7157;BME280;3620;49.862;8.758;2023-02-05T00:22:17;101328.16;;;6.56;95.03
7157;BME280;3620;49.862;8.758;2023-02-05T00:24:43;101321.22;;;6.64;94.15
7157;BME280;3620;49.862;8.758;2023-02-05T00:27:10;101323.84;;;6.67;93.74
7157;BME280;3620;49.862;8.758;2023-02-05T00:29:37;101317.75;;;6.71;93.72
7157;BME280;3620;49.862;8.758;2023-02-05T00:32:03;101309.03;;;6.66;93.70
7157;BME280;3620;49.862;8.758;2023-02-05T00:34:30;101303.81;;;6.71;93.53
7157;BME280;3620;49.862;8.758;2023-02-05T00:36:58;101302.06;;;6.74;93.18
7157;BME280;3620;49.862;8.758;2023-02-05T00:39:24;101308.19;;;6.76;92.64
7157;BME280;3620;49.862;8.758;2023-02-05T00:41:51;101298.53;;;6.60;92.65
7157;BME280;3620;49.862;8.758;2023-02-05T00:44:17;101299.38;;;6.51;92.85
7157;BME280;3620;49.862;8.758;2023-02-05T00:46:44;101308.94;;;6.42;93.63
7157;BME280;3620;49.862;8.758;2023-02-05T00:49:10;101310.63;;;6.37;94.41
7157;BME280;3620;49.862;8.758;2023-02-05T00:51:37;101302.78;;;6.31;94.27
7157;BME280;3620;49.862;8.758;2023-02-05T00:54:05;101300.13;;;6.29;94.37
7157;BME280;3620;49.862;8.758;2023-02-05T00:56:31;101299.25;;;6.24;94.73
7157;BME280;3620;49.862;8.758;2023-02-05T00:58:58;101298.38;;;6.24;94.59
7157;BME280;3620;49.862;8.758;2023-02-05T01:01:25;101292.25;;;6.19;94.58
7157;BME280;3620;49.862;8.758;2023-02-05T01:03:51;101294.00;;;6.21;95.21
7157;BME280;3620;49.862;8.758;2023-02-05T01:06:18;101286.13;;;6.17;94.79
7157;BME280;3620;49.862;8.758;2023-02-05T01:08:45;101286.16;;;6.20;94.87
7157;BME280;3620;49.862;8.758;2023-02-05T01:11:13;101280.03;;;6.13;94.27
7157;BME280;3620;49.862;8.758;2023-02-05T01:13:40;101281.72;;;6.05;93.97
7157;BME280;3620;49.862;8.758;2023-02-05T01:16:07;101282.56;;;6.03;94.33
7157;BME280;3620;49.862;8.758;2023-02-05T01:18:34;101279.06;;;6.01;94.73
7157;BME280;3620;49.862;8.758;2023-02-05T01:21:01;101273.81;;;5.95;94.05
7157;BME280;3620;49.862;8.758;2023-02-05T01:23:28;101263.22;;;5.76;94.96
7157;BME280;3620;49.862;8.758;2023-02-05T01:25:54;101260.56;;;5.70;95.34
7157;BME280;3620;49.862;8.758;2023-02-05T01:28:22;101264.00;;;5.63;95.47
7157;BME280;3620;49.862;8.758;2023-02-05T01:30:49;101254.47;;;5.68;95.26
7157;BME280;3620;49.862;8.758;2023-02-05T01:33:16;101254.50;;;5.74;95.51
7157;BME280;3620;49.862;8.758;2023-02-05T01:35:43;101258.88;;;5.75;95.32
7157;BME280;3620;49.862;8.758;2023-02-05T01:38:09;101252.81;;;5.79;95.66
7157;BME280;3620;49.862;8.758;2023-02-05T01:40:36;101254.47;;;5.71;95.37
7157;BME280;3620;49.862;8.758;2023-02-05T01:43:03;101254.47;;;5.68;95.75
7157;BME280;3620;49.862;8.758;2023-02-05T01:48:39;101259.69;;;5.71;95.07
7157;BME280;3620;49.862;8.758;2023-02-05T01:51:08;101268.34;;;5.61;95.73
7157;BME280;3620;49.862;8.758;2023-02-05T01:53:37;101259.59;;;5.53;95.62
7157;BME280;3620;49.862;8.758;2023-02-05T01:56:07;101248.25;;;5.51;96.20
7157;BME280;3620;49.862;8.758;2023-02-05T01:58:38;101237.91;;;5.62;96.68
7157;BME280;3620;49.862;8.758;2023-02-05T02:01:06;101230.06;;;5.63;95.97
7157;BME280;3620;49.862;8.758;2023-02-05T02:03:33;101211.81;;;5.66;96.11
7157;BME280;3620;49.862;8.758;2023-02-05T02:06:01;101216.13;;;5.61;95.52
7157;BME280;3620;49.862;8.758;2023-02-05T02:08:29;101214.38;;;5.57;95.77
7157;BME280;3620;49.862;8.758;2023-02-05T02:10:57;101210.81;;;5.49;95.62
7157;BME280;3620;49.862;8.758;2023-02-05T02:13:26;101211.69;;;5.48;95.94
7157;BME280;3620;49.862;8.758;2023-02-05T02:15:54;101221.25;;;5.49;95.81
7157;BME280;3620;49.862;8.758;2023-02-05T02:18:23;101224.75;;;5.50;95.24
7157;BME280;3620;49.862;8.758;2023-02-05T02:21:06;101215.16;;;5.44;95.47
7157;BME280;3620;49.862;8.758;2023-02-05T02:23:48;101209.94;;;5.47;95.20
7157;BME280;3620;49.862;8.758;2023-02-05T02:26:42;101199.53;;;5.50;95.60
7157;BME280;3620;49.862;8.758;2023-02-05T02:29:17;101203.81;;;5.42;95.69
7157;BME280;3620;49.862;8.758;2023-02-05T02:31:50;101202.03;;;5.35;95.73
7157;BME280;3620;49.862;8.758;2023-02-05T02:34:24;101202.06;;;5.41;95.41
7157;BME280;3620;49.862;8.758;2023-02-05T02:36:57;101202.06;;;5.43;95.23
7157;BME280;3620;49.862;8.758;2023-02-05T02:39:30;101210.81;;;5.46;94.60
7157;BME280;3620;49.862;8.758;2023-02-05T02:42:01;101198.59;;;5.42;94.46
7157;BME280;3620;49.862;8.758;2023-02-05T02:44:33;101200.34;;;5.43;94.73
7157;BME280;3620;49.862;8.758;2023-02-05T02:47:05;101196.81;;;5.35;95.27
7157;BME280;3620;49.862;8.758;2023-02-05T02:49:37;101186.38;;;5.38;95.40
7157;BME280;3620;49.862;8.758;2023-02-05T02:52:07;101179.44;;;5.37;95.82
7157;BME280;3620;49.862;8.758;2023-02-05T02:54:35;101178.56;;;5.37;94.88
7157;BME280;3620;49.862;8.758;2023-02-05T02:57:06;101186.44;;;5.44;95.33
7157;BME280;3620;49.862;8.758;2023-02-05T02:59:37;101189.94;;;5.49;95.65
7157;BME280;3620;49.862;8.758;2023-02-05T03:02:08;101182.13;;;5.52;95.39
7157;BME280;3620;49.862;8.758;2023-02-05T03:04:38;101185.59;;;5.50;94.56
7157;BME280;3620;49.862;8.758;2023-02-05T03:07:09;101179.47;;;5.43;94.88
7157;BME280;3620;49.862;8.758;2023-02-05T03:09:40;101181.22;;;5.44;94.70
7157;BME280;3620;49.862;8.758;2023-02-05T03:12:07;101180.31;;;5.42;93.96
7157;BME280;3620;49.862;8.758;2023-02-05T03:14:36;101165.50;;;5.38;94.67
7157;BME280;3620;49.862;8.758;2023-02-05T03:17:03;101158.56;;;5.40;94.05
7157;BME280;3620;49.862;8.758;2023-02-05T03:19:29;101157.69;;;5.38;94.42
7157;BME280;3620;49.862;8.758;2023-02-05T03:21:59;101161.16;;;5.39;94.42
7157;BME280;3620;49.862;8.758;2023-02-05T03:24:26;101156.84;;;5.44;95.20
7157;BME280;3620;49.862;8.758;2023-02-05T03:26:53;101163.78;;;5.37;95.19
7157;BME280;3620;49.862;8.758;2023-02-05T03:29:24;101159.41;;;5.36;95.65
7157;BME280;3620;49.862;8.758;2023-02-05T03:32:02;101165.50;;;5.38;95.04
7157;BME280;3620;49.862;8.758;2023-02-05T03:34:40;101155.94;;;5.37;95.21
7157;BME280;3620;49.862;8.758;2023-02-05T03:37:16;101155.97;;;5.43;94.59
7157;BME280;3620;49.862;8.758;2023-02-05T03:39:53;101155.13;;;5.44;95.07
7157;BME280;3620;49.862;8.758;2023-02-05T03:42:32;101163.81;;;5.43;95.23
7157;BME280;3620;49.862;8.758;2023-02-05T03:45:13;101156.84;;;5.45;94.68
7157;BME280;3620;49.862;8.758;2023-02-05T03:47:58;101133.41;;;5.51;94.85
7157;BME280;3620;49.862;8.758;2023-02-05T03:50:30;101136.00;;;5.51;94.35
7157;BME280;3620;49.862;8.758;2023-02-05T03:53:06;101136.88;;;5.50;95.67
7157;BME280;3620;49.862;8.758;2023-02-05T03:55:38;101143.78;;;5.42;95.60
7157;BME280;3620;49.862;8.758;2023-02-05T03:58:10;101142.97;;;5.46;95.71
7157;BME280;3620;49.862;8.758;2023-02-05T04:00:39;101145.59;;;5.54;95.79
7157;BME280;3620;49.862;8.758;2023-02-05T04:03:08;101142.97;;;5.52;95.55
7157;BME280;3620;49.862;8.758;2023-02-05T04:05:34;101130.84;;;5.57;96.14
7157;BME280;3620;49.862;8.758;2023-02-05T04:08:01;101137.78;;;5.55;95.36
7157;BME280;3620;49.862;8.758;2023-02-05T04:10:28;101142.25;;;4.59;100.00
7157;BME280;3620;49.862;8.758;2023-02-05T04:12:54;101152.44;;;4.34;100.00
7157;BME280;3620;49.862;8.758;2023-02-05T04:15:21;101152.13;;;4.04;100.00
7157;BME280;3620;49.862;8.758;2023-02-05T04:17:47;101152.13;;;4.04;100.00
7157;BME280;3620;49.862;8.758;2023-02-05T04:20:16;101145.00;;;3.91;100.00
7157;BME280;3620;49.862;8.758;2023-02-05T04:22:42;101153.44;;;3.72;100.00
7157;BME280;3620;49.862;8.758;2023-02-05T04:25:09;101149.13;;;3.71;100.00
7157;BME280;3620;49.862;8.758;2023-02-05T04:27:35;101155.34;;;3.85;100.00
7157;BME280;3620;49.862;8.758;2023-02-05T04:30:02;101153.72;;;3.93;100.00
7157;BME280;3620;49.862;8.758;2023-02-05T04:32:30;101157.28;;;4.01;100.00
7157;BME280;3620;49.862;8.758;2023-02-05T04:34:57;101150.53;;;4.15;100.00
7157;BME280;3620;49.862;8.758;2023-02-05T04:37:25;101148.41;;;3.87;100.00
7157;BME280;3620;49.862;8.758;2023-02-05T04:39:51;101134.69;;;4.00;100.00
7157;BME280;3620;49.862;8.758;2023-02-05T04:42:18;101144.97;;;3.88;100.00
7157;BME280;3620;49.862;8.758;2023-02-05T04:44:44;101147.72;;;4.00;100.00
7157;BME280;3620;49.862;8.758;2023-02-05T04:47:11;101138.09;;;3.93;100.00
7157;BME280;3620;49.862;8.758;2023-02-05T04:49:38;101143.28;;;3.92;100.00
7157;BME280;3620;49.862;8.758;2023-02-05T04:52:05;101144.44;;;4.15;100.00
7157;BME280;3620;49.862;8.758;2023-02-05T04:54:33;101152.44;;;4.34;100.00
7157;BME280;3620;49.862;8.758;2023-02-05T04:57:02;101153.53;;;4.53;100.00
7157;BME280;3620;49.862;8.758;2023-02-05T04:59:28;101136.88;;;4.40;100.00
7157;BME280;3620;49.862;8.758;2023-02-05T05:01:56;101135.94;;;4.32;100.00
7157;BME280;3620;49.862;8.758;2023-02-05T05:04:22;101128.06;;;4.29;100.00
7157;BME280;3620;49.862;8.758;2023-02-05T05:06:49;101128.22;;;4.44;100.00
7157;BME280;3620;49.862;8.758;2023-02-05T05:09:15;101133.44;;;4.41;100.00
7157;BME280;3620;49.862;8.758;2023-02-05T05:11:46;101131.75;;;4.47;100.00
7157;BME280;3620;49.862;8.758;2023-02-05T05:14:12;101128.25;;;4.47;100.00
7157;BME280;3620;49.862;8.758;2023-02-05T05:16:39;101121.34;;;4.50;100.00
7157;BME280;3620;49.862;8.758;2023-02-05T05:19:05;101123.00;;;4.44;100.00
7157;BME280;3620;49.862;8.758;2023-02-05T05:21:32;101132.53;;;4.41;100.00
7157;BME280;3620;49.862;8.758;2023-02-05T05:23:58;101126.53;;;4.47;100.00
7157;BME280;3620;49.862;8.758;2023-02-05T05:26:25;101126.59;;;4.56;100.00
7157;BME280;3620;49.862;8.758;2023-02-05T05:28:53;101124.91;;;4.61;100.00
7157;BME280;3620;49.862;8.758;2023-02-05T05:31:20;101136.13;;;4.54;100.00
7157;BME280;3620;49.862;8.758;2023-02-05T05:33:47;101138.91;;;4.72;100.00
7157;BME280;3620;49.862;8.758;2023-02-05T05:36:14;101129.53;;;4.92;100.00
7157;BME280;3620;49.862;8.758;2023-02-05T05:38:41;101131.34;;;5.05;100.00
7157;BME280;3620;49.862;8.758;2023-02-05T05:41:09;101140.09;;;5.10;100.00
7157;BME280;3620;49.862;8.758;2023-02-05T05:44:01;101146.22;;;5.15;100.00
7157;BME280;3620;49.862;8.758;2023-02-05T05:46:28;101142.75;;;5.16;100.00
7157;BME280;3620;49.862;8.758;2023-02-05T05:48:56;101145.38;;;5.19;100.00
7157;BME280;3620;49.862;8.758;2023-02-05T05:51:24;101136.75;;;5.28;100.00
7157;BME280;3620;49.862;8.758;2023-02-05T05:53:51;101126.91;;;4.92;100.00
7157;BME280;3620;49.862;8.758;2023-02-05T05:56:18;101130.25;;;4.74;100.00
7157;BME280;3620;49.862;8.758;2023-02-05T05:58:45;101131.16;;;4.79;100.00
7157;BME280;3620;49.862;8.758;2023-02-05T06:01:15;101133.63;;;4.63;100.00
7157;BME280;3620;49.862;8.758;2023-02-05T06:03:42;101131.22;;;4.87;100.00
7157;BME280;3620;49.862;8.758;2023-02-05T06:06:09;101132.06;;;4.80;100.00
7157;BME280;3620;49.862;8.758;2023-02-05T06:08:37;101129.56;;;4.95;100.00
7157;BME280;3620;49.862;8.758;2023-02-05T06:11:03;101145.25;;;5.02;100.00
7157;BME280;3620;49.862;8.758;2023-02-05T06:13:31;101153.09;;;5.07;100.00
7157;BME280;3620;49.862;8.758;2023-02-05T06:15:59;101158.47;;;5.25;100.00
7157;BME280;3620;49.862;8.758;2023-02-05T06:18:26;101158.50;;;5.31;100.00
7157;BME280;3620;49.862;8.758;2023-02-05T06:20:53;101154.09;;;5.21;100.00
7157;BME280;3620;49.862;8.758;2023-02-05T06:23:20;101150.59;;;5.17;100.00
7157;BME280;3620;49.862;8.758;2023-02-05T06:25:47;101144.47;;;5.11;100.00
7157;BME280;3620;49.862;8.758;2023-02-05T06:28:14;101147.19;;;5.28;100.00
7157;BME280;3620;49.862;8.758;2023-02-05T06:30:40;101139.34;;;5.29;100.00
7157;BME280;3620;49.862;8.758;2023-02-05T06:35:49;101142.00;;;4.31;100.00
7157;BME280;3620;49.862;8.758;2023-02-05T06:38:16;101129.78;;;4.24;100.00
7157;BME280;3620;49.862;8.758;2023-02-05T06:40:42;101127.09;;;4.17;100.00
7157;BME280;3620;49.862;8.758;2023-02-05T06:43:09;101121.91;;;4.20;100.00
7157;BME280;3620;49.862;8.758;2023-02-05T06:45:35;101126.09;;;4.04;100.00
7157;BME280;3620;49.862;8.758;2023-02-05T06:48:02;101113.84;;;3.97;100.00
7157;BME280;3620;49.862;8.758;2023-02-05T06:50:29;101102.91;;;4.30;100.00
7157;BME280;3620;49.862;8.758;2023-02-05T06:52:56;101112.41;;;4.23;100.00
7157;BME280;3620;49.862;8.758;2023-02-05T06:55:23;101110.72;;;4.28;100.00
7157;BME280;3620;49.862;8.758;2023-02-05T06:57:50;101125.56;;;4.40;100.00
7157;BME280;3620;49.862;8.758;2023-02-05T07:00:17;101121.25;;;4.40;100.00
7157;BME280;3620;49.862;8.758;2023-02-05T07:02:43;101114.31;;;4.42;100.00
7157;BME280;3620;49.862;8.758;2023-02-05T07:05:10;101106.41;;;4.33;100.00
7157;BME280;3620;49.862;8.758;2023-02-05T07:07:36;101104.72;;;4.38;100.00
7157;BME280;3620;49.862;8.758;2023-02-05T07:10:05;101107.41;;;4.47;100.00
7157;BME280;3620;49.862;8.758;2023-02-05T07:12:32;101095.31;;;4.53;100.00
7157;BME280;3620;49.862;8.758;2023-02-05T07:14:58;101103.97;;;4.49;100.00
7157;BME280;3620;49.862;8.758;2023-02-05T07:17:25;101113.47;;;4.42;100.00
7157;BME280;3620;49.862;8.758;2023-02-05T07:19:51;101105.47;;;4.25;100.00
7157;BME280;3620;49.862;8.758;2023-02-05T07:22:18;101117.81;;;4.44;100.00
7157;BME280;3620;49.862;8.758;2023-02-05T07:24:45;101117.94;;;4.57;100.00
7157;BME280;3620;49.862;8.758;2023-02-05T07:27:12;101112.91;;;4.81;100.00
7157;BME280;3620;49.862;8.758;2023-02-05T07:29:39;101109.28;;;4.58;100.00
7157;BME280;3620;49.862;8.758;2023-02-05T07:32:05;101116.13;;;4.47;100.00
7157;BME280;3620;49.862;8.758;2023-02-05T07:34:32;101121.28;;;4.43;100.00
7157;BME280;3620;49.862;8.758;2023-02-05T07:36:59;101125.66;;;4.47;100.00
7157;BME280;3620;49.862;8.758;2023-02-05T07:39:25;101126.53;;;4.47;100.00
7157;BME280;3620;49.862;8.758;2023-02-05T07:41:52;101123.19;;;4.63;100.00
7157;BME280;3620;49.862;8.758;2023-02-05T07:44:20;101123.31;;;4.78;100.00
7157;BME280;3620;49.862;8.758;2023-02-05T07:46:47;101118.09;;;4.78;100.00
7157;BME280;3620;49.862;8.758;2023-02-05T07:49:13;101088.47;;;4.64;100.00
7157;BME280;3620;49.862;8.758;2023-02-05T07:51:40;101083.28;;;4.70;100.00
7157;BME280;3620;49.862;8.758;2023-02-05T07:54:07;101080.56;;;4.55;100.00
7157;BME280;3620;49.862;8.758;2023-02-05T07:56:34;101080.66;;;4.62;100.00
7157;BME280;3620;49.862;8.758;2023-02-05T07:59:00;101070.91;;;4.41;100.00
7157;BME280;3620;49.862;8.758;2023-02-05T08:01:29;101057.00;;;4.42;100.00
7157;BME280;3620;49.862;8.758;2023-02-05T08:03:56;101054.53;;;4.59;100.00
7157;BME280;3620;49.862;8.758;2023-02-05T08:06:22;101047.69;;;4.72;100.00
7157;BME280;3620;49.862;8.758;2023-02-05T08:08:49;101057.22;;;4.70;100.00
7157;BME280;3620;49.862;8.758;2023-02-05T08:11:16;101051.84;;;4.49;100.00
7157;BME280;3620;49.862;8.758;2023-02-05T08:13:44;101077.03;;;4.48;100.00
7157;BME280;3620;49.862;8.758;2023-02-05T08:16:11;101083.25;;;4.67;100.00
7157;BME280;3620;49.862;8.758;2023-02-05T08:18:41;101075.47;;;4.70;100.00
7157;BME280;3620;49.862;8.758;2023-02-05T08:21:07;101086.66;;;4.57;100.00
7157;BME280;3620;49.862;8.758;2023-02-05T08:23:34;101083.31;;;4.73;100.00
7157;BME280;3620;49.862;8.758;2023-02-05T08:26:00;101095.28;;;4.50;100.00
7157;BME280;3620;49.862;8.758;2023-02-05T08:28:27;101091.09;;;4.68;100.00
7157;BME280;3620;49.862;8.758;2023-02-05T08:30:54;101086.63;;;4.54;100.00
7157;BME280;3620;49.862;8.758;2023-02-05T08:33:21;101081.53;;;4.67;100.00
7157;BME280;3620;49.862;8.758;2023-02-05T08:35:49;101081.53;;;4.66;100.00
7157;BME280;3620;49.862;8.758;2023-02-05T08:38:16;101067.66;;;4.70;100.00
7157;BME280;3620;49.862;8.758;2023-02-05T08:40:43;101062.47;;;4.76;100.00
7157;BME280;3620;49.862;8.758;2023-02-05T08:43:09;101064.31;;;4.86;100.00
7157;BME280;3620;49.862;8.758;2023-02-05T08:45:36;101059.28;;;5.14;100.00
7157;BME280;3620;49.862;8.758;2023-02-05T08:48:03;101062.78;;;5.21;100.00
7157;BME280;3620;49.862;8.758;2023-02-05T08:50:29;101062.84;;;5.30;100.00
7157;BME280;3620;49.862;8.758;2023-02-05T08:52:57;101062.84;;;5.36;100.00
7157;BME280;3620;49.862;8.758;2023-02-05T08:55:24;101055.94;;;5.41;100.00
7157;BME280;3620;49.862;8.758;2023-02-05T08:57:50;101055.06;;;5.38;100.00
7157;BME280;3620;49.862;8.758;2023-02-05T09:00:17;101057.69;;;5.45;100.00
7157;BME280;3620;49.862;8.758;2023-02-05T09:02:45;101055.91;;;5.38;100.00
7157;BME280;3620;49.862;8.758;2023-02-05T09:05:11;101050.75;;;5.50;100.00
7157;BME280;3620;49.862;8.758;2023-02-05T09:07:39;101040.34;;;5.56;100.00
7157;BME280;3620;49.862;8.758;2023-02-05T09:10:09;101042.91;;;5.44;100.00
7157;BME280;3620;49.862;8.758;2023-02-05T09:12:36;101049.94;;;5.57;100.00
7157;BME280;3620;49.862;8.758;2023-02-05T09:15:02;101050.78;;;5.59;100.00
7157;BME280;3620;49.862;8.758;2023-02-05T09:17:30;101063.81;;;5.56;100.00
7157;BME280;3620;49.862;8.758;2023-02-05T09:19:56;101049.06;;;5.61;100.00
7157;BME280;3620;49.862;8.758;2023-02-05T09:22:23;101045.66;;;5.83;100.00
7157;BME280;3620;49.862;8.758;2023-02-05T09:24:49;101042.22;;;5.90;100.00
7157;BME280;3620;49.862;8.758;2023-02-05T09:27:17;101029.19;;;5.95;100.00
7157;BME280;3620;49.862;8.758;2023-02-05T09:29:44;101040.50;;;6.08;100.00
7157;BME280;3620;49.862;8.758;2023-02-05T09:32:10;101034.44;;;6.04;100.00
7157;BME280;3620;49.862;8.758;2023-02-05T09:34:37;101024.69;;;5.59;100.00
7157;BME280;3620;49.862;8.758;2023-02-05T09:37:04;101021.16;;;5.45;100.00
7157;BME280;3620;49.862;8.758;2023-02-05T09:39:30;101007.28;;;5.58;100.00
7157;BME280;3620;49.862;8.758;2023-02-05T09:42:00;101005.56;;;5.57;100.00
7157;BME280;3620;49.862;8.758;2023-02-05T09:44:45;101028.06;;;5.34;100.00
7157;BME280;3620;49.862;8.758;2023-02-05T09:47:19;101020.09;;;5.05;100.00
7157;BME280;3620;49.862;8.758;2023-02-05T09:49:52;101022.69;;;5.01;100.00
7157;BME280;3620;49.862;8.758;2023-02-05T09:52:23;101024.28;;;4.81;100.00
7157;BME280;3620;49.862;8.758;2023-02-05T09:54:54;101019.97;;;4.86;100.00
7157;BME280;3620;49.862;8.758;2023-02-05T09:57:31;101018.22;;;4.82;100.00
7157;BME280;3620;49.862;8.758;2023-02-05T10:00:00;101013.81;;;4.76;100.00
7157;BME280;3620;49.862;8.758;2023-02-05T10:02:30;101015.66;;;4.94;100.00
7157;BME280;3620;49.862;8.758;2023-02-05T10:05:00;101008.78;;;5.02;100.00
7157;BME280;3620;49.862;8.758;2023-02-05T10:07:36;101012.31;;;5.14;100.00
7157;BME280;3620;49.862;8.758;2023-02-05T10:10:22;101007.97;;;5.12;100.00
7157;BME280;3620;49.862;8.758;2023-02-05T10:13:06;101008.91;;;5.32;100.00
7157;BME280;3620;49.862;8.758;2023-02-05T10:15:47;101006.38;;;5.52;100.00
7157;BME280;3620;49.862;8.758;2023-02-05T10:18:21;101016.00;;;5.68;100.00
7157;BME280;3620;49.862;8.758;2023-02-05T10:20:59;101017.66;;;5.37;100.00
7157;BME280;3620;49.862;8.758;2023-02-05T10:23:46;101008.19;;;5.62;100.00
7157;BME280;3620;49.862;8.758;2023-02-05T10:26:16;101003.81;;;5.59;100.00
7157;BME280;3620;49.862;8.758;2023-02-05T10:31:44;101000.28;;;5.48;100.00
7157;BME280;3620;49.862;8.758;2023-02-05T10:34:35;100999.38;;;5.37;100.00
7157;BME280;3620;49.862;8.758;2023-02-05T10:37:13;100991.47;;;5.19;100.00
7157;BME280;3620;49.862;8.758;2023-02-05T10:39:41;100988.03;;;5.34;100.00
7157;BME280;3620;49.862;8.758;2023-02-05T10:42:23;100997.66;;;5.38;100.00
7157;BME280;3620;49.862;8.758;2023-02-05T10:44:59;100988.06;;;5.35;100.00
7157;BME280;3620;49.862;8.758;2023-02-05T10:47:43;100976.72;;;5.32;100.00
7157;BME280;3620;49.862;8.758;2023-02-05T10:50:18;100979.38;;;5.36;100.00
7157;BME280;3620;49.862;8.758;2023-02-05T10:52:47;100978.50;;;5.34;100.00
7157;BME280;3620;49.862;8.758;2023-02-05T10:55:13;100977.59;;;5.26;100.00
7157;BME280;3620;49.862;8.758;2023-02-05T10:57:40;100973.31;;;5.42;100.00
7157;BME280;3620;49.862;8.758;2023-02-05T11:00:13;100975.00;;;5.32;100.00
7157;BME280;3620;49.862;8.758;2023-02-05T11:02:46;100972.47;;;5.56;100.00
7157;BME280;3620;49.862;8.758;2023-02-05T11:05:18;100969.84;;;5.49;100.00
7157;BME280;3620;49.862;8.758;2023-02-05T11:07:48;100972.50;;;5.71;100.00
7157;BME280;3620;49.862;8.758;2023-02-05T11:10:16;100967.34;;;5.99;100.00
7157;BME280;3620;49.862;8.758;2023-02-05T11:12:44;100966.44;;;5.75;100.00
7157;BME280;3620;49.862;8.758;2023-02-05T11:15:20;100963.88;;;5.90;100.00
7157;BME280;3620;49.862;8.758;2023-02-05T11:17:53;100966.44;;;5.83;100.00
7157;BME280;3620;49.862;8.758;2023-02-05T11:20:27;100955.09;;;5.70;100.00
7157;BME280;3620;49.862;8.758;2023-02-05T11:23:06;100960.31;;;5.69;100.00
7157;BME280;3620;49.862;8.758;2023-02-05T11:25:34;100948.19;;;5.87;100.00
7157;BME280;3620;49.862;8.758;2023-02-05T11:28:02;100943.78;;;5.80;100.00
7157;BME280;3620;49.862;8.758;2023-02-05T11:30:31;100946.47;;;6.02;100.00
7157;BME280;3620;49.862;8.758;2023-02-05T11:33:17;100941.25;;;6.02;100.00
7157;BME280;3620;49.862;8.758;2023-02-05T11:35:49;100939.50;;;5.98;100.00
7157;BME280;3620;49.862;8.758;2023-02-05T11:38:23;100940.38;;;5.97;100.00
7157;BME280;3620;49.862;8.758;2023-02-05T11:40:55;100937.72;;;5.84;100.00
7157;BME280;3620;49.862;8.758;2023-02-05T11:43:26;100941.13;;;5.50;100.00
7157;BME280;3620;49.862;8.758;2023-02-05T11:45:54;100935.97;;;5.74;100.00
7157;BME280;3620;49.862;8.758;2023-02-05T11:48:30;100930.72;;;5.65;100.00
7157;BME280;3620;49.862;8.758;2023-02-05T11:50:58;100940.25;;;5.51;100.00
7157;BME280;3620;49.862;8.758;2023-02-05T11:53:25;100930.75;;;5.77;100.00
7157;BME280;3620;49.862;8.758;2023-02-05T11:55:54;100935.94;;;5.53;100.00
7157;BME280;3620;49.862;8.758;2023-02-05T11:58:24;100928.13;;;5.80;100.00
7157;BME280;3620;49.862;8.758;2023-02-05T12:00:54;100928.19;;;6.06;100.00
7157;BME280;3620;49.862;8.758;2023-02-05T12:03:23;100932.50;;;5.75;100.00
7157;BME280;3620;49.862;8.758;2023-02-05T12:05:53;100924.66;;;5.80;100.00
7157;BME280;3620;49.862;8.758;2023-02-05T12:08:31;100923.78;;;5.70;100.00
7157;BME280;3620;49.862;8.758;2023-02-05T12:11:07;100927.28;;;5.84;100.00
7157;BME280;3620;49.862;8.758;2023-02-05T12:13:48;100925.56;;;5.93;100.00
7157;BME280;3620;49.862;8.758;2023-02-05T12:16:27;100929.06;;;6.13;100.00
7157;BME280;3620;49.862;8.758;2023-02-05T12:19:07;100920.34;;;6.20;100.00
7157;BME280;3620;49.862;8.758;2023-02-05T12:21:47;100920.34;;;6.26;100.00
7157;BME280;3620;49.862;8.758;2023-02-05T12:24:45;100919.44;;;6.27;100.00
7157;BME280;3620;49.862;8.758;2023-02-05T12:27:25;100915.09;;;6.45;100.00
7157;BME280;3620;49.862;8.758;2023-02-05T12:30:18;100909.78;;;6.74;100.00
7157;BME280;3620;49.862;8.758;2023-02-05T12:32:52;100906.28;;;6.78;100.00
7157;BME280;3620;49.862;8.758;2023-02-05T12:35:34;100904.56;;;6.74;100.00
7157;BME280;3620;49.862;8.758;2023-02-05T12:38:17;100913.28;;;6.73;100.00
7157;BME280;3620;49.862;8.758;2023-02-05T12:41:00;100920.25;;;6.77;100.00
7157;BME280;3620;49.862;8.758;2023-02-05T12:43:36;100913.25;;;6.82;100.00
7157;BME280;3620;49.862;8.758;2023-02-05T12:46:13;100910.66;;;6.79;100.00
7157;BME280;3620;49.862;8.758;2023-02-05T12:48:55;100908.91;;;6.80;100.00
7157;BME280;3620;49.862;8.758;2023-02-05T12:51:53;100908.06;;;6.70;100.00
7157;BME280;3620;49.862;8.758;2023-02-05T12:54:41;100908.91;;;6.81;100.00
7157;BME280;3620;49.862;8.758;2023-02-05T12:57:12;100907.13;;;6.83;100.00
7157;BME280;3620;49.862;8.758;2023-02-05T12:59:45;100902.69;;;7.06;100.00
7157;BME280;3620;49.862;8.758;2023-02-05T13:02:23;100907.00;;;7.19;100.00
7157;BME280;3620;49.862;8.758;2023-02-05T13:05:01;100906.88;;;7.39;100.00
7157;BME280;3620;49.862;8.758;2023-02-05T13:07:34;100906.06;;;7.32;100.00
7157;BME280;3620;49.862;8.758;2023-02-05T13:10:06;100907.81;;;7.30;100.00
7157;BME280;3620;49.862;8.758;2023-02-05T13:12:41;100903.25;;;7.61;100.00
7157;BME280;3620;49.862;8.758;2023-02-05T13:15:14;100895.22;;;7.88;100.00
7157;BME280;3620;49.862;8.758;2023-02-05T13:17:52;100895.13;;;7.96;100.00
7157;BME280;3620;49.862;8.758;2023-02-05T13:20:24;100886.38;;;7.98;100.00
7157;BME280;3620;49.862;8.758;2023-02-05T13:23:13;100881.94;;;8.08;100.00
7157;BME280;3620;49.862;8.758;2023-02-05T13:26:00;100881.16;;;7.94;100.00
7157;BME280;3620;49.862;8.758;2023-02-05T13:28:45;100888.91;;;8.10;100.00
7157;BME280;3620;49.862;8.758;2023-02-05T13:31:23;100893.25;;;8.13;100.00
7157;BME280;3620;49.862;8.758;2023-02-05T13:33:52;100887.88;;;8.25;100.00
7157;BME280;3620;49.862;8.758;2023-02-05T13:36:52;100879.38;;;7.99;100.00
7157;BME280;3620;49.862;8.758;2023-02-05T13:39:44;100881.13;;;8.00;100.00